Time;durP1;ratioP1;P1;durP2;ratioP2;P2;SDS_P1;SDS_P2;PMS_P1;PMS_P2;Temp;Humidity;BMP_temperature;BMP_pressure;BME280_temperature;BME280_humidity;BME280_pressure;Samples;Min_cycle;Max_cycle;Signal;HPM_P1;HPM_P2
2022/04/08 00:01:29;;;;;;;;;0.67;0.67;;;;;;;;5124048;27;45256;-78
2022/04/08 00:03:55;;;;;;;;;0.33;0.33;;;;;;;;5123814;27;45468;-77
2022/04/08 00:06:23;;;;;;;;;2.67;1.00;;;;;;;;5123858;27;45349;-78
2022/04/08 00:08:49;;;;;;;;;1.00;1.00;;;;;;;;5123759;27;46034;-77
2022/04/08 00:11:14;;;;;;;;;0.33;0.33;;;;;;;;5123771;27;45318;-78
2022/04/08 00:13:39;;;;;;;;;1.67;1.00;;;;;;;;5123970;27;45535;-78
2022/04/08 00:16:05;;;;;;;;;1.00;1.00;;;;;;;;5110425;27;45243;-78
2022/04/08 00:18:30;;;;;;;;;1.67;1.67;;;;;;;;5101500;27;47345;-78
2022/04/08 00:20:56;;;;;;;;;1.00;1.00;;;;;;;;5103053;27;45362;-78
2022/04/08 00:23:21;;;;;;;;;2.33;0.00;;;;;;;;5101671;27;45270;-78
2022/04/08 00:25:47;;;;;;;;;1.00;0.00;;;;;;;;5101426;27;45881;-78
2022/04/08 00:28:12;;;;;;;;;1.67;0.67;;;;;;;;5102925;27;46248;-78
2022/04/08 00:30:37;;;;;;;;;1.67;1.67;;;;;;;;5100992;27;45263;-78
2022/04/08 00:33:02;;;;;;;;;2.00;2.00;;;;;;;;5101632;27;45222;-78
2022/04/08 00:35:27;;;;;;;;;2.00;0.00;;;;;;;;5101653;27;45277;-78
2022/04/08 00:37:53;;;;;;;;;2.33;0.00;;;;;;;;5100240;27;47329;-77
2022/04/08 00:40:18;;;;;;;;;1.33;0.00;;;;;;;;5101756;27;45723;-78
2022/04/08 00:42:44;;;;;;;;;1.00;1.00;;;;;;;;5100432;27;45330;-77
2022/04/08 00:45:09;;;;;;;;;1.00;1.00;;;;;;;;5101407;27;45620;-78
2022/04/08 00:47:36;;;;;;;;;2.00;2.00;;;;;;;;5100891;27;45248;-78
2022/04/08 00:50:03;;;;;;;;;1.00;1.00;;;;;;;;5101477;27;45240;-78
2022/04/08 00:52:29;;;;;;;;;2.00;1.00;;;;;;;;5101348;27;45247;-78
2022/04/08 00:54:55;;;;;;;;;0.00;0.00;;;;;;;;5101080;27;45457;-78
2022/04/08 00:57:20;;;;;;;;;1.00;1.00;;;;;;;;5101277;27;45782;-78
2022/04/08 00:59:46;;;;;;;;;0.67;0.33;;;;;;;;5101221;27;45328;-78
2022/04/08 01:02:11;;;;;;;;;0.00;0.00;;;;;;;;5101243;27;45292;-79
2022/04/08 01:04:36;;;;;;;;;1.33;1.33;;;;;;;;5099703;27;47081;-77
2022/04/08 01:07:02;;;;;;;;;2.00;1.00;;;;;;;;5100967;27;45485;-78
2022/04/08 01:09:27;;;;;;;;;1.00;1.00;;;;;;;;5099750;27;45361;-78
2022/04/08 01:11:52;;;;;;;;;1.00;1.00;;;;;;;;5099813;27;45467;-78
2022/04/08 01:14:17;;;;;;;;;1.00;1.00;;;;;;;;5099559;27;47210;-79
2022/04/08 01:16:43;;;;;;;;;3.00;2.33;;;;;;;;5118907;27;46321;-77
2022/04/08 01:19:08;;;;;;;;;1.67;1.67;;;;;;;;5121634;27;45302;-78
2022/04/08 01:21:34;;;;;;;;;1.67;1.67;;;;;;;;5121602;27;45351;-78
2022/04/08 01:24:00;;;;;;;;;1.00;0.00;;;;;;;;5119964;27;46272;-78
2022/04/08 01:26:25;;;;;;;;;2.33;2.33;;;;;;;;5121179;27;45385;-78
2022/04/08 01:28:54;;;;;;;;;0.00;0.00;;;;;;;;5121240;27;45362;-78
2022/04/08 01:31:19;;;;;;;;;1.33;1.33;;;;;;;;5078931;27;1196554;-78
2022/04/08 01:33:45;;;;;;;;;4.00;1.00;;;;;;;;5120844;27;47061;-78
2022/04/08 01:36:10;;;;;;;;;0.33;0.33;;;;;;;;5122380;27;46034;-78
2022/04/08 01:38:35;;;;;;;;;2.00;2.00;;;;;;;;5120960;27;45316;-77
2022/04/08 01:41:01;;;;;;;;;0.00;0.00;;;;;;;;5122466;27;45360;-78
2022/04/08 01:43:26;;;;;;;;;0.00;0.00;;;;;;;;5122299;27;45533;-78
2022/04/08 01:45:51;;;;;;;;;1.33;0.67;;;;;;;;5122269;27;45302;-78
2022/04/08 01:48:17;;;;;;;;;2.00;1.00;;;;;;;;5122036;27;45301;-78
2022/04/08 01:50:43;;;;;;;;;0.67;0.67;;;;;;;;5122347;27;45314;-78
2022/04/08 01:53:09;;;;;;;;;0.33;0.33;;;;;;;;5120474;27;46253;-78
2022/04/08 01:55:34;;;;;;;;;0.33;0.33;;;;;;;;5122197;27;45413;-78
2022/04/08 01:57:59;;;;;;;;;2.00;0.00;;;;;;;;5120797;27;45777;-77
2022/04/08 02:00:25;;;;;;;;;0.00;0.00;;;;;;;;5119763;27;45167;-78
2022/04/08 02:02:50;;;;;;;;;2.33;2.33;;;;;;;;5121769;27;45559;-78
2022/04/08 02:05:15;;;;;;;;;2.00;1.00;;;;;;;;5120458;27;48188;-78
2022/04/08 02:07:40;;;;;;;;;2.00;1.00;;;;;;;;5121889;27;45289;-78
2022/04/08 02:10:06;;;;;;;;;0.67;0.67;;;;;;;;5122080;27;45216;-79
2022/04/08 02:12:31;;;;;;;;;1.00;1.00;;;;;;;;5120495;27;45909;-78
2022/04/08 02:14:56;;;;;;;;;2.00;1.00;;;;;;;;5118126;27;45251;-78
2022/04/08 02:17:25;;;;;;;;;1.33;1.00;;;;;;;;5099519;27;46197;-79
2022/04/08 02:19:50;;;;;;;;;3.67;2.00;;;;;;;;5101228;27;45344;-78
2022/04/08 02:22:16;;;;;;;;;1.00;0.67;;;;;;;;5099348;27;46175;-78
2022/04/08 02:24:41;;;;;;;;;1.00;0.67;;;;;;;;5099528;27;47206;-78
2022/04/08 02:27:06;;;;;;;;;1.00;1.00;;;;;;;;5100993;27;45302;-78
2022/04/08 02:29:35;;;;;;;;;1.33;1.33;;;;;;;;5099888;27;45673;-78
2022/04/08 02:32:00;;;;;;;;;2.00;2.00;;;;;;;;5099153;27;46144;-78
2022/04/08 02:34:25;;;;;;;;;0.00;0.00;;;;;;;;5100634;27;46095;-78
2022/04/08 02:36:50;;;;;;;;;3.00;1.33;;;;;;;;5099344;27;45939;-78
2022/04/08 02:39:16;;;;;;;;;1.00;1.00;;;;;;;;5099488;27;45258;-78
2022/04/08 02:41:41;;;;;;;;;0.00;0.00;;;;;;;;5099382;27;46298;-78
2022/04/08 02:44:06;;;;;;;;;0.00;0.00;;;;;;;;5100693;27;46322;-78
2022/04/08 02:46:32;;;;;;;;;1.00;1.00;;;;;;;;5100596;27;45741;-78
2022/04/08 02:48:57;;;;;;;;;2.00;0.33;;;;;;;;5100884;27;45351;-78
2022/04/08 02:51:22;;;;;;;;;1.67;0.00;;;;;;;;5099280;27;46053;-78
2022/04/08 02:53:47;;;;;;;;;0.00;0.00;;;;;;;;5099021;27;47094;-78
2022/04/08 02:56:12;;;;;;;;;0.67;0.00;;;;;;;;5099292;27;45874;-78
2022/04/08 02:58:38;;;;;;;;;1.00;1.00;;;;;;;;5100783;27;45282;-78
2022/04/08 03:01:03;;;;;;;;;1.00;1.00;;;;;;;;5100463;27;45499;-78
2022/04/08 03:03:28;;;;;;;;;0.67;0.67;;;;;;;;5100232;27;45345;-78
2022/04/08 03:05:54;;;;;;;;;0.00;0.00;;;;;;;;5099214;27;46183;-78
2022/04/08 03:08:19;;;;;;;;;0.67;0.67;;;;;;;;5100404;27;45396;-78
2022/04/08 03:10:45;;;;;;;;;0.67;0.67;;;;;;;;5100155;27;45365;-78
2022/04/08 03:13:11;;;;;;;;;0.00;0.00;;;;;;;;5100218;27;45341;-78
2022/04/08 03:15:36;;;;;;;;;1.00;1.00;;;;;;;;5107732;27;45559;-78
2022/04/08 03:18:01;;;;;;;;;1.00;1.00;;;;;;;;5119416;27;45294;-78
2022/04/08 03:20:26;;;;;;;;;2.00;1.00;;;;;;;;5120751;27;45329;-78
2022/04/08 03:22:52;;;;;;;;;0.67;0.67;;;;;;;;5119301;27;47810;-78
2022/04/08 03:25:17;;;;;;;;;2.00;1.33;;;;;;;;5120810;27;45414;-78
2022/04/08 03:27:42;;;;;;;;;2.33;0.67;;;;;;;;5121055;27;45428;-78
2022/04/08 03:30:07;;;;;;;;;0.33;0.33;;;;;;;;5120433;27;45246;-78
2022/04/08 03:32:33;;;;;;;;;0.00;0.00;;;;;;;;5120183;27;45395;-78
2022/04/08 03:34:58;;;;;;;;;1.00;1.00;;;;;;;;5120614;27;45281;-78
2022/04/08 03:37:24;;;;;;;;;1.67;1.67;;;;;;;;5120658;27;45262;-78
2022/04/08 03:39:49;;;;;;;;;2.00;1.67;;;;;;;;5119110;27;47314;-78
2022/04/08 03:42:14;;;;;;;;;2.00;2.00;;;;;;;;5120379;27;45270;-79
2022/04/08 03:44:40;;;;;;;;;1.00;1.00;;;;;;;;5120510;27;45333;-78
2022/04/08 03:47:05;;;;;;;;;1.00;1.00;;;;;;;;5120470;27;45357;-78
2022/04/08 03:49:33;;;;;;;;;0.67;0.67;;;;;;;;5120513;27;45155;-78
2022/04/08 03:51:58;;;;;;;;;1.00;1.00;;;;;;;;5120278;27;45921;-78
2022/04/08 03:54:23;;;;;;;;;2.00;0.00;;;;;;;;5120228;27;45297;-79
2022/04/08 03:56:49;;;;;;;;;1.00;1.00;;;;;;;;5119228;27;45296;-78
2022/04/08 03:59:14;;;;;;;;;1.00;1.00;;;;;;;;5120169;27;45347;-79
2022/04/08 04:01:39;;;;;;;;;1.33;1.00;;;;;;;;5119975;27;45253;-79
2022/04/08 04:04:05;;;;;;;;;2.67;1.00;;;;;;;;5118788;27;45254;-79
2022/04/08 04:06:30;;;;;;;;;2.00;2.00;;;;;;;;5120424;27;45342;-79
2022/04/08 04:08:55;;;;;;;;;1.00;1.00;;;;;;;;5120197;27;45359;-81
2022/04/08 04:11:20;;;;;;;;;1.33;1.33;;;;;;;;5120188;27;45408;-81
2022/04/08 04:13:46;;;;;;;;;0.67;0.67;;;;;;;;5120172;27;45381;-80
2022/04/08 04:16:11;;;;;;;;;3.33;1.00;;;;;;;;5120743;27;45307;-82
2022/04/08 04:18:37;;;;;;;;;3.67;1.33;;;;;;;;5118860;27;46509;-82
2022/04/08 04:21:02;;;;;;;;;1.00;1.00;;;;;;;;5120444;27;45384;-81
2022/04/08 04:23:27;;;;;;;;;3.67;2.00;;;;;;;;5100943;27;45515;-81
2022/04/08 04:25:53;;;;;;;;;2.00;2.00;;;;;;;;5082981;27;45453;-80
2022/04/08 04:28:18;;;;;;;;;3.33;1.33;;;;;;;;5098221;27;45599;-80
2022/04/08 04:30:43;;;;;;;;;1.33;1.33;;;;;;;;5098343;27;47267;-78
2022/04/08 04:33:08;;;;;;;;;1.00;1.00;;;;;;;;5082195;27;45315;-78
2022/04/08 04:35:34;;;;;;;;;1.00;1.00;;;;;;;;5082734;28;45330;-80
2022/04/08 04:37:59;;;;;;;;;1.00;1.00;;;;;;;;5082222;27;45520;-81
2022/04/08 04:40:25;;;;;;;;;1.00;0.00;;;;;;;;5081065;28;47303;-82
2022/04/08 04:42:51;;;;;;;;;1.00;1.00;;;;;;;;5080946;28;45527;-81
2022/04/08 04:45:16;;;;;;;;;2.00;1.00;;;;;;;;5082087;27;45257;-81
2022/04/08 04:47:41;;;;;;;;;2.00;1.33;;;;;;;;5081966;28;45376;-80
2022/04/08 04:50:06;;;;;;;;;1.00;1.00;;;;;;;;5081965;27;45430;-81
2022/04/08 04:52:32;;;;;;;;;0.67;0.00;;;;;;;;5080537;28;45184;-80
2022/04/08 04:54:57;;;;;;;;;1.00;1.00;;;;;;;;5082081;27;45455;-79
2022/04/08 04:57:23;;;;;;;;;3.00;2.00;;;;;;;;5082052;27;45417;-78
2022/04/08 04:59:48;;;;;;;;;1.67;1.67;;;;;;;;5081931;27;45343;-75
2022/04/08 05:02:13;;;;;;;;;1.33;1.33;;;;;;;;5081982;27;45301;-77
2022/04/08 05:04:38;;;;;;;;;2.00;1.67;;;;;;;;5081992;27;45267;-77
2022/04/08 05:07:03;;;;;;;;;3.33;2.00;;;;;;;;5081724;27;45228;-78
2022/04/08 05:09:29;;;;;;;;;1.67;1.67;;;;;;;;5081967;27;45351;-77
2022/04/08 05:11:54;;;;;;;;;1.00;1.00;;;;;;;;5081886;27;45330;-77
2022/04/08 05:14:22;;;;;;;;;0.67;0.67;;;;;;;;5081906;27;45297;-76
2022/04/08 05:16:47;;;;;;;;;1.00;1.00;;;;;;;;5119442;27;45410;-77
2022/04/08 05:19:13;;;;;;;;;0.67;0.67;;;;;;;;5122609;27;45144;-76
2022/04/08 05:21:38;;;;;;;;;1.33;1.00;;;;;;;;5121188;27;45427;-77
2022/04/08 05:24:03;;;;;;;;;1.00;1.00;;;;;;;;5123300;27;45376;-77
2022/04/08 05:26:28;;;;;;;;;1.33;1.00;;;;;;;;5124799;27;45204;-78
2022/04/08 05:28:53;;;;;;;;;2.00;1.00;;;;;;;;5124730;27;47528;-78
2022/04/08 05:31:19;;;;;;;;;2.00;1.00;;;;;;;;5123251;27;45226;-77
2022/04/08 05:33:44;;;;;;;;;1.67;1.67;;;;;;;;5087749;27;45398;-78
2022/04/08 05:36:09;;;;;;;;;1.33;1.00;;;;;;;;5080474;28;45165;-77
2022/04/08 05:38:35;;;;;;;;;1.67;1.00;;;;;;;;5083250;27;45214;-76
2022/04/08 05:41:00;;;;;;;;;1.00;1.00;;;;;;;;5081324;27;45279;-77
2022/04/08 05:43:25;;;;;;;;;1.67;1.00;;;;;;;;5080256;28;45214;-75
2022/04/08 05:45:50;;;;;;;;;2.67;1.00;;;;;;;;5094035;27;47043;-75
2022/04/08 05:48:16;;;;;;;;;3.67;2.00;;;;;;;;5101615;27;45147;-75
2022/04/08 05:50:41;;;;;;;;;1.00;1.00;;;;;;;;5100377;27;45245;-75
2022/04/08 05:53:06;;;;;;;;;0.00;0.00;;;;;;;;5080368;27;45228;-76
2022/04/08 05:55:31;;;;;;;;;1.00;1.00;;;;;;;;5081305;27;45374;-75
2022/04/08 05:57:57;;;;;;;;;1.00;1.00;;;;;;;;5081427;27;45403;-75
2022/04/08 06:00:23;;;;;;;;;2.00;2.00;;;;;;;;5080247;27;45695;-75
2022/04/08 06:02:49;;;;;;;;;2.67;2.67;;;;;;;;5080993;27;45353;-75
2022/04/08 06:05:20;;;;;;;;;3.67;2.33;;;;;;;;5080359;27;45346;-76
2022/04/08 06:07:49;;;;;;;;;3.00;3.00;;;;;;;;5078487;27;45401;-75
2022/04/08 06:10:18;;;;;;;;;6.33;4.00;;;;;;;;5077124;28;46530;-75
2022/04/08 06:12:47;;;;;;;;;5.33;5.33;;;;;;;;5078688;27;45540;-75
2022/04/08 06:15:12;;;;;;;;;7.00;7.00;;;;;;;;5087975;27;46413;-75
2022/04/08 06:17:37;;;;;;;;;9.00;7.33;;;;;;;;5119251;27;45527;-75
2022/04/08 06:20:04;;;;;;;;;13.67;10.00;;;;;;;;5118554;27;45451;-75
2022/04/08 06:22:30;;;;;;;;;8.33;6.33;;;;;;;;5121550;27;45664;-75
2022/04/08 06:24:55;;;;;;;;;5.00;4.00;;;;;;;;5121540;27;45464;-75
2022/04/08 06:27:20;;;;;;;;;3.33;3.33;;;;;;;;5121632;27;46175;-74
2022/04/08 06:29:45;;;;;;;;;3.67;3.67;;;;;;;;5121645;27;45276;-75
2022/04/08 06:32:10;;;;;;;;;3.00;3.00;;;;;;;;5121050;27;45355;-75
2022/04/08 06:34:35;;;;;;;;;2.67;2.67;;;;;;;;5121397;27;45293;-74
2022/04/08 06:37:01;;;;;;;;;3.00;2.00;;;;;;;;5121257;27;45293;-76
2022/04/08 06:39:26;;;;;;;;;4.00;4.00;;;;;;;;5121549;27;45468;-75
2022/04/08 06:41:51;;;;;;;;;2.00;2.00;;;;;;;;5121529;27;45357;-74
2022/04/08 06:44:16;;;;;;;;;2.67;2.67;;;;;;;;5120016;27;46185;-75
2022/04/08 06:46:42;;;;;;;;;4.67;2.67;;;;;;;;5120566;27;45397;-73
2022/04/08 06:49:07;;;;;;;;;2.67;2.67;;;;;;;;5121321;27;45431;-74
2022/04/08 06:51:32;;;;;;;;;4.67;3.67;;;;;;;;5119829;27;45410;-74
2022/04/08 06:53:57;;;;;;;;;2.00;2.00;;;;;;;;5120970;27;45371;-74
2022/04/08 06:56:22;;;;;;;;;2.00;1.00;;;;;;;;5119637;27;47631;-75
2022/04/08 06:58:48;;;;;;;;;3.00;2.00;;;;;;;;5119780;27;45310;-74
2022/04/08 07:01:14;;;;;;;;;2.00;2.00;;;;;;;;5121218;27;45277;-75
2022/04/08 07:03:39;;;;;;;;;1.33;1.33;;;;;;;;5120974;27;45340;-75
2022/04/08 07:06:04;;;;;;;;;6.00;3.00;;;;;;;;5120936;27;45341;-75
2022/04/08 07:08:29;;;;;;;;;4.67;3.00;;;;;;;;5120894;27;45306;-75
2022/04/08 07:10:54;;;;;;;;;3.33;3.00;;;;;;;;5119595;27;45371;-75
2022/04/08 07:13:20;;;;;;;;;2.00;1.67;;;;;;;;5119500;27;45526;-75
2022/04/08 07:15:45;;;;;;;;;3.00;3.00;;;;;;;;5109166;27;48194;-75
2022/04/08 07:18:10;;;;;;;;;2.33;2.00;;;;;;;;5100035;27;45243;-76
2022/04/08 07:20:35;;;;;;;;;4.00;3.00;;;;;;;;5100436;27;45455;-75
2022/04/08 07:23:02;;;;;;;;;3.33;3.33;;;;;;;;5100041;27;45255;-75
2022/04/08 07:25:28;;;;;;;;;3.00;2.00;;;;;;;;5099987;27;46522;-74
2022/04/08 07:27:56;;;;;;;;;3.00;3.00;;;;;;;;5091717;27;45247;-74
2022/04/08 07:30:22;;;;;;;;;25.33;22.67;;;;;;;;5078828;27;46461;-75
2022/04/08 07:32:50;;;;;;;;;3.33;3.33;;;;;;;;5078760;27;45410;-76
2022/04/08 07:35:15;;;;;;;;;56.25;43.25;;;;;;;;5078891;27;45262;-75
2022/04/08 07:37:41;;;;;;;;;49.00;40.00;;;;;;;;5079291;28;45253;-76
2022/04/08 07:40:07;;;;;;;;;65.25;51.50;;;;;;;;5078150;28;45288;-75
2022/04/08 07:42:33;;;;;;;;;48.00;38.25;;;;;;;;5079324;27;45215;-75
2022/04/08 07:44:58;;;;;;;;;132.25;115.50;;;;;;;;5079056;27;45457;-75
2022/04/08 07:47:26;;;;;;;;;80.75;66.00;;;;;;;;5079110;27;45358;-75
2022/04/08 07:49:55;;;;;;;;;105.75;87.75;;;;;;;;5079522;27;45420;-75
2022/04/08 07:52:20;;;;;;;;;28.00;25.00;;;;;;;;5079175;27;45633;-75
2022/04/08 07:54:45;;;;;;;;;5.33;5.33;;;;;;;;5077704;28;47315;-74
2022/04/08 07:57:12;;;;;;;;;4.00;4.00;;;;;;;;5079360;28;45270;-75
2022/04/08 07:59:38;;;;;;;;;4.00;4.00;;;;;;;;5082488;27;45393;-75
2022/04/08 08:02:03;;;;;;;;;4.00;2.00;;;;;;;;5082549;27;45307;-75
2022/04/08 08:04:28;;;;;;;;;1.00;1.00;;;;;;;;5081258;28;47185;-75
2022/04/08 08:06:53;;;;;;;;;3.67;3.67;;;;;;;;5082604;27;45303;-75
2022/04/08 08:09:18;;;;;;;;;1.00;1.00;;;;;;;;5082862;27;45540;-75
2022/04/08 08:11:44;;;;;;;;;2.67;1.33;;;;;;;;5082648;27;45519;-74
2022/04/08 08:14:09;;;;;;;;;3.67;2.67;;;;;;;;5082619;27;45361;-74
2022/04/08 08:16:34;;;;;;;;;3.33;2.00;;;;;;;;5116912;27;45406;-74
2022/04/08 08:19:00;;;;;;;;;2.67;1.67;;;;;;;;5122457;27;45360;-76
2022/04/08 08:21:26;;;;;;;;;3.00;1.33;;;;;;;;5123544;27;45391;-75
2022/04/08 08:23:51;;;;;;;;;2.67;2.67;;;;;;;;5123593;27;45458;-75
2022/04/08 08:26:17;;;;;;;;;2.33;2.33;;;;;;;;5123733;27;45376;-76
2022/04/08 08:28:42;;;;;;;;;4.00;2.33;;;;;;;;5123781;27;45319;-75
2022/04/08 08:31:07;;;;;;;;;7.67;4.33;;;;;;;;5122790;27;45473;-75
2022/04/08 08:33:33;;;;;;;;;2.33;2.33;;;;;;;;5123302;27;45225;-74
2022/04/08 08:35:58;;;;;;;;;2.33;2.33;;;;;;;;5121803;27;45430;-75
2022/04/08 08:38:23;;;;;;;;;6.00;5.67;;;;;;;;5099111;27;45267;-76
2022/04/08 08:40:49;;;;;;;;;4.00;4.00;;;;;;;;5090739;27;45463;-75
2022/04/08 08:43:19;;;;;;;;;5.00;3.00;;;;;;;;5102019;27;45458;-75
2022/04/08 08:45:45;;;;;;;;;7.33;6.00;;;;;;;;5100943;27;45408;-76
2022/04/08 08:48:12;;;;;;;;;6.33;4.33;;;;;;;;5102338;27;45298;-75
2022/04/08 08:50:38;;;;;;;;;2.00;2.00;;;;;;;;5101049;27;47389;-75
2022/04/08 08:53:03;;;;;;;;;4.00;3.00;;;;;;;;5101879;27;46200;-75
2022/04/08 08:55:29;;;;;;;;;2.00;2.00;;;;;;;;5102202;27;45207;-75
2022/04/08 08:57:54;;;;;;;;;23.33;20.00;;;;;;;;5102423;27;45447;-75
2022/04/08 09:00:22;;;;;;;;;19.00;15.00;;;;;;;;5102227;27;45414;-75
2022/04/08 09:02:48;;;;;;;;;11.00;8.00;;;;;;;;5101943;27;46457;-75
2022/04/08 09:05:23;;;;;;;;;79.25;60.00;;;;;;;;5102098;27;45464;-76
2022/04/08 09:07:53;;;;;;;;;81.75;68.75;;;;;;;;5100694;27;45356;-75
2022/04/08 09:10:23;;;;;;;;;22.67;18.00;;;;;;;;5100369;27;46057;-75
2022/04/08 09:12:52;;;;;;;;;27.00;22.67;;;;;;;;5102027;27;45480;-75
2022/04/08 09:15:17;;;;;;;;;22.33;19.33;;;;;;;;5106629;27;45348;-75
2022/04/08 09:17:42;;;;;;;;;2.00;2.00;;;;;;;;5122569;27;45308;-76
2022/04/08 09:20:08;;;;;;;;;2.33;2.00;;;;;;;;5122575;27;45164;-75
2022/04/08 09:22:33;;;;;;;;;2.33;2.00;;;;;;;;5122487;27;45245;-78
2022/04/08 09:25:10;;;;;;;;;3.00;3.00;;;;;;;;5122707;27;45343;-77
2022/04/08 09:27:36;;;;;;;;;71.75;51.75;;;;;;;;5101235;27;45602;-78
2022/04/08 09:30:01;;;;;;;;;46.50;39.25;;;;;;;;5099578;27;46361;-77
2022/04/08 09:32:28;;;;;;;;;4.00;4.00;;;;;;;;5082062;27;46361;-78
2022/04/08 09:34:53;;;;;;;;;2.00;2.00;;;;;;;;5081413;27;45266;-76
2022/04/08 09:37:18;;;;;;;;;1.00;1.00;;;;;;;;5081042;27;45416;-77
2022/04/08 09:39:55;;;;;;;;;2.00;2.00;;;;;;;;5081912;27;45372;-78
2022/04/08 09:42:21;;;;;;;;;2.00;2.00;;;;;;;;5088780;27;45480;-78
2022/04/08 09:44:47;;;;;;;;;41.50;34.00;;;;;;;;5101572;27;45231;-79
2022/04/08 09:47:12;;;;;;;;;7.33;7.33;;;;;;;;5100001;27;45377;-79
2022/04/08 09:49:38;;;;;;;;;2.33;2.33;;;;;;;;5101092;27;45288;-78
2022/04/08 09:52:05;;;;;;;;;31.50;26.50;;;;;;;;5084724;27;45388;-77
2022/04/08 09:54:32;;;;;;;;;32.75;28.75;;;;;;;;5079214;27;45333;-76
2022/04/08 09:56:58;;;;;;;;;60.50;48.00;;;;;;;;5090117;27;45343;-75
2022/04/08 09:59:27;;;;;;;;;43.75;35.75;;;;;;;;5095834;27;45448;-75
2022/04/08 10:01:53;;;;;;;;;9.33;7.67;;;;;;;;5082935;27;47364;-76
2022/04/08 10:04:19;;;;;;;;;73.50;56.00;;;;;;;;5096667;27;45538;-76
2022/04/08 10:06:45;;;;;;;;;40.25;32.00;;;;;;;;5097346;27;45453;-77
2022/04/08 10:09:12;;;;;;;;;16.00;14.00;;;;;;;;5101020;27;45526;-76
2022/04/08 10:11:46;;;;;;;;;54.25;44.25;;;;;;;;5100975;27;45500;-76
2022/04/08 10:14:30;;;;;;;;;11.00;11.00;;;;;;;;5100914;27;45287;-76
2022/04/08 10:16:57;;;;;;;;;24.33;20.33;;;;;;;;5120970;27;45267;-75
2022/04/08 10:19:22;;;;;;;;;18.67;16.00;;;;;;;;5121365;27;45602;-77
2022/04/08 10:21:52;;;;;;;;;4.33;4.33;;;;;;;;5120570;27;45377;-75
2022/04/08 10:24:21;;;;;;;;;5.00;3.67;;;;;;;;5120343;27;45318;-78
2022/04/08 10:27:06;;;;;;;;;49.50;40.75;;;;;;;;5093863;27;45350;-75
2022/04/08 10:29:32;;;;;;;;;5.00;5.00;;;;;;;;5082563;27;45816;-75
2022/04/08 10:31:58;;;;;;;;;6.00;4.00;;;;;;;;5100337;27;46365;-77
2022/04/08 10:34:24;;;;;;;;;4.00;3.33;;;;;;;;5100576;27;45340;-75
2022/04/08 10:36:49;;;;;;;;;2.00;2.00;;;;;;;;5098107;27;45331;-78
2022/04/08 10:39:16;;;;;;;;;26.00;17.75;;;;;;;;5100148;27;45427;-79
2022/04/08 10:41:44;;;;;;;;;28.25;27.25;;;;;;;;5099154;27;48101;-78
2022/04/08 10:44:10;;;;;;;;;3.00;3.00;;;;;;;;5100503;27;45290;-78
2022/04/08 10:46:35;;;;;;;;;7.00;4.00;;;;;;;;5099792;27;45280;-80
2022/04/08 10:49:00;;;;;;;;;1.67;1.67;;;;;;;;5100551;27;45316;-79
2022/04/08 10:51:29;;;;;;;;;14.67;13.33;;;;;;;;5097961;27;46047;-78
2022/04/08 10:54:01;;;;;;;;;72.25;56.50;;;;;;;;5084780;27;45324;-80
2022/04/08 10:56:31;;;;;;;;;71.25;53.25;;;;;;;;5084916;27;45445;-77
2022/04/08 10:58:59;;;;;;;;;5.00;5.00;;;;;;;;5080028;27;45416;-79
2022/04/08 11:01:25;;;;;;;;;4.00;3.00;;;;;;;;5079582;27;45332;-79
2022/04/08 11:03:53;;;;;;;;;2.33;2.33;;;;;;;;5082182;27;45693;-78
2022/04/08 11:06:19;;;;;;;;;4.00;4.00;;;;;;;;5099246;27;45349;-78
2022/04/08 11:08:44;;;;;;;;;3.00;3.00;;;;;;;;5098356;27;46931;-79
2022/04/08 11:11:09;;;;;;;;;3.00;3.00;;;;;;;;5099819;27;45733;-82
2022/04/08 11:13:35;;;;;;;;;11.67;9.67;;;;;;;;5091843;27;45300;-77
2022/04/08 11:16:00;;;;;;;;;3.67;3.67;;;;;;;;5090979;27;45641;-78
2022/04/08 11:18:25;;;;;;;;;4.00;4.00;;;;;;;;5097694;27;46131;-79
2022/04/08 11:20:51;;;;;;;;;14.00;9.33;;;;;;;;5093944;27;47165;-77
2022/04/08 11:23:28;;;;;;;;;54.25;42.00;;;;;;;;5079595;27;45559;-76
2022/04/08 11:25:53;;;;;;;;;22.25;20.25;;;;;;;;5079778;27;45366;-76
2022/04/08 11:28:20;;;;;;;;;5.00;5.00;;;;;;;;5079404;27;45362;-76
2022/04/08 11:30:46;;;;;;;;;5.33;5.33;;;;;;;;5079136;27;45408;-77
2022/04/08 11:33:18;;;;;;;;;11.33;9.67;;;;;;;;5080300;28;45964;-78
2022/04/08 11:35:44;;;;;;;;;2.67;2.67;;;;;;;;5081908;27;45338;-79
2022/04/08 11:38:16;;;;;;;;;3.33;3.33;;;;;;;;5090763;27;45642;-76
2022/04/08 11:40:42;;;;;;;;;3.33;3.33;;;;;;;;5101292;27;47264;-77
2022/04/08 11:43:15;;;;;;;;;3.33;3.33;;;;;;;;5101889;27;45388;-77
2022/04/08 11:45:40;;;;;;;;;7.67;6.67;;;;;;;;5096051;27;45291;-78
2022/04/08 11:48:06;;;;;;;;;10.67;10.67;;;;;;;;5083880;27;45339;-77
2022/04/08 11:50:35;;;;;;;;;8.67;7.00;;;;;;;;5084252;27;46527;-79
2022/04/08 11:53:01;;;;;;;;;5.67;5.00;;;;;;;;5082142;27;45153;-79
2022/04/08 11:55:27;;;;;;;;;5.67;4.00;;;;;;;;5082017;27;45330;-78
2022/04/08 11:57:53;;;;;;;;;7.33;7.33;;;;;;;;5080878;27;45878;-79
2022/04/08 12:00:26;;;;;;;;;10.67;9.33;;;;;;;;5096431;27;45429;-78
2022/04/08 12:02:51;;;;;;;;;6.00;5.67;;;;;;;;5101693;27;45735;-78
2022/04/08 12:05:24;;;;;;;;;8.00;8.00;;;;;;;;5103084;27;45309;-79
2022/04/08 12:07:50;;;;;;;;;4.33;4.33;;;;;;;;5098770;27;47045;-79
2022/04/08 12:10:15;;;;;;;;;5.00;5.00;;;;;;;;5090703;27;46628;-78
2022/04/08 12:12:43;;;;;;;;;6.33;5.33;;;;;;;;5083507;27;45277;-77
2022/04/08 12:15:08;;;;;;;;;3.00;3.00;;;;;;;;5108217;27;45353;-78
2022/04/08 12:17:40;;;;;;;;;6.00;6.00;;;;;;;;5123317;27;45374;-78
2022/04/08 12:20:10;;;;;;;;;5.00;5.00;;;;;;;;5123072;27;46740;-78
2022/04/08 12:22:38;;;;;;;;;6.00;5.00;;;;;;;;5122013;27;45446;-77
2022/04/08 12:25:05;;;;;;;;;5.00;5.00;;;;;;;;5123739;27;45280;-77
2022/04/08 12:27:30;;;;;;;;;5.67;5.67;;;;;;;;5123250;27;45365;-76
2022/04/08 12:30:03;;;;;;;;;11.00;10.00;;;;;;;;5123135;27;46469;-78
2022/04/08 12:32:33;;;;;;;;;15.67;14.67;;;;;;;;5103619;27;46252;-76
2022/04/08 12:34:58;;;;;;;;;9.67;8.67;;;;;;;;5083635;27;45475;-75
2022/04/08 12:37:23;;;;;;;;;7.33;7.33;;;;;;;;5082882;27;45339;-76
2022/04/08 12:39:48;;;;;;;;;83.25;71.25;;;;;;;;5100406;27;45414;-77
2022/04/08 12:42:14;;;;;;;;;21.75;20.75;;;;;;;;5099260;27;45436;-79
2022/04/08 12:44:39;;;;;;;;;9.00;8.00;;;;;;;;5081660;27;45455;-78
2022/04/08 12:47:05;;;;;;;;;10.00;10.00;;;;;;;;5087576;27;45539;-79
2022/04/08 12:49:30;;;;;;;;;9.67;9.67;;;;;;;;5081976;28;46457;-78
2022/04/08 12:51:56;;;;;;;;;29.50;28.00;;;;;;;;5081477;27;46062;-76
2022/04/08 12:54:23;;;;;;;;;17.67;17.33;;;;;;;;5097897;27;45609;-75
2022/04/08 12:56:48;;;;;;;;;8.33;8.33;;;;;;;;5101542;27;45489;-74
2022/04/08 12:59:14;;;;;;;;;5.67;5.67;;;;;;;;5100630;27;48151;-74
2022/04/08 13:01:39;;;;;;;;;3.33;3.33;;;;;;;;5101671;27;45251;-74
2022/04/08 13:04:04;;;;;;;;;3.00;3.00;;;;;;;;5102224;27;45379;-75
2022/04/08 13:06:30;;;;;;;;;87.25;76.75;;;;;;;;5100432;27;46288;-74
2022/04/08 13:08:55;;;;;;;;;7.00;5.00;;;;;;;;5102101;27;46335;-75
2022/04/08 13:11:21;;;;;;;;;4.67;4.33;;;;;;;;5101866;27;45311;-73
2022/04/08 13:13:47;;;;;;;;;5.67;4.33;;;;;;;;5100811;27;45319;-73
2022/04/08 13:16:12;;;;;;;;;6.00;6.00;;;;;;;;5101415;27;45824;-73
2022/04/08 13:18:37;;;;;;;;;6.00;6.00;;;;;;;;5101834;27;46116;-73
2022/04/08 13:21:03;;;;;;;;;8.00;6.67;;;;;;;;5100630;27;45291;-74
2022/04/08 13:23:28;;;;;;;;;3.33;3.33;;;;;;;;5102210;27;45388;-75
2022/04/08 13:25:53;;;;;;;;;2.33;2.33;;;;;;;;5100576;27;45965;-73
2022/04/08 13:28:19;;;;;;;;;2.00;1.00;;;;;;;;5101687;27;46692;-74
2022/04/08 13:30:44;;;;;;;;;2.00;1.00;;;;;;;;5101363;27;45546;-73
2022/04/08 13:33:12;;;;;;;;;1.00;1.00;;;;;;;;5101733;27;45519;-74
2022/04/08 13:35:37;;;;;;;;;1.67;1.67;;;;;;;;5101452;27;45409;-75
2022/04/08 13:38:02;;;;;;;;;0.67;0.67;;;;;;;;5101564;27;46277;-74
2022/04/08 13:40:28;;;;;;;;;1.00;1.00;;;;;;;;5101235;27;45327;-74
2022/04/08 13:42:53;;;;;;;;;56.00;43.75;;;;;;;;5101829;27;45316;-74
2022/04/08 13:45:18;;;;;;;;;44.50;37.25;;;;;;;;5101558;27;45413;-75
2022/04/08 13:47:44;;;;;;;;;69.25;52.75;;;;;;;;5100999;27;46212;-75
2022/04/08 13:50:14;;;;;;;;;73.75;55.50;;;;;;;;5101620;27;45309;-75
2022/04/08 13:52:39;;;;;;;;;15.67;13.67;;;;;;;;5101264;27;45274;-77
2022/04/08 13:55:05;;;;;;;;;46.00;37.00;;;;;;;;5090626;27;45428;-77
2022/04/08 13:57:30;;;;;;;;;36.25;32.00;;;;;;;;5100361;27;45349;-76
2022/04/08 13:59:56;;;;;;;;;4.33;3.67;;;;;;;;5101509;27;45309;-75
2022/04/08 14:02:21;;;;;;;;;5.00;3.33;;;;;;;;5088101;27;45294;-76
2022/04/08 14:04:46;;;;;;;;;38.50;33.50;;;;;;;;5092912;27;45409;-80
2022/04/08 14:07:12;;;;;;;;;59.25;46.75;;;;;;;;5097384;27;45449;-78
2022/04/08 14:09:37;;;;;;;;;42.00;36.50;;;;;;;;5080493;27;45557;-77
2022/04/08 14:12:02;;;;;;;;;73.75;57.75;;;;;;;;5080957;27;45381;-77
2022/04/08 14:14:28;;;;;;;;;22.25;18.50;;;;;;;;5082458;27;46429;-78
2022/04/08 14:16:53;;;;;;;;;58.75;47.25;;;;;;;;5119969;27;45375;-79
2022/04/08 14:19:18;;;;;;;;;3.67;3.67;;;;;;;;5121740;27;45313;-80
2022/04/08 14:21:43;;;;;;;;;55.00;42.50;;;;;;;;5120082;27;45324;-78
2022/04/08 14:24:08;;;;;;;;;19.00;18.00;;;;;;;;5111605;27;45258;-78
2022/04/08 14:26:34;;;;;;;;;119.00;97.50;;;;;;;;5078705;27;47332;-76
2022/04/08 14:28:59;;;;;;;;;53.00;38.25;;;;;;;;5081538;27;45427;-76
2022/04/08 14:31:24;;;;;;;;;4.67;4.33;;;;;;;;5077165;27;46748;-78